sensor_id;sensor_type;location;lat;lon;timestamp;P1;durP1;ratioP1;P2;durP2;ratioP2
23988;SDS011;12202;52.136;5.592;2023-03-04T00:02:22;35.05;;;4.95;;
23988;SDS011;12202;52.136;5.592;2023-03-04T00:04:48;21.45;;;3.85;;
23988;SDS011;12202;52.136;5.592;2023-03-04T00:07:14;22.88;;;4.57;;
23988;SDS011;12202;52.136;5.592;2023-03-04T00:09:43;33.75;;;4.22;;
23988;SDS011;12202;52.136;5.592;2023-03-04T00:12:09;23.52;;;4.63;;
23988;SDS011;12202;52.136;5.592;2023-03-04T00:14:35;20.92;;;3.05;;
23988;SDS011;12202;52.136;5.592;2023-03-04T00:17:01;22.38;;;3.97;;
23988;SDS011;12202;52.136;5.592;2023-03-04T00:19:28;27.98;;;4.32;;
23988;SDS011;12202;52.136;5.592;2023-03-04T00:21:54;20.77;;;3.58;;
23988;SDS011;12202;52.136;5.592;2023-03-04T00:24:20;25.40;;;4.20;;
23988;SDS011;12202;52.136;5.592;2023-03-04T00:26:46;27.33;;;4.18;;
23988;SDS011;12202;52.136;5.592;2023-03-04T00:29:12;20.70;;;4.25;;
23988;SDS011;12202;52.136;5.592;2023-03-04T00:31:38;21.00;;;3.90;;
23988;SDS011;12202;52.136;5.592;2023-03-04T00:34:04;26.52;;;3.88;;
23988;SDS011;12202;52.136;5.592;2023-03-04T00:36:30;24.35;;;4.05;;
23988;SDS011;12202;52.136;5.592;2023-03-04T00:38:56;19.63;;;4.00;;
23988;SDS011;12202;52.136;5.592;2023-03-04T00:41:22;19.33;;;4.18;;
23988;SDS011;12202;52.136;5.592;2023-03-04T00:43:48;24.83;;;5.13;;
23988;SDS011;12202;52.136;5.592;2023-03-04T00:46:14;27.60;;;5.55;;
23988;SDS011;12202;52.136;5.592;2023-03-04T00:48:40;24.67;;;5.03;;
23988;SDS011;12202;52.136;5.592;2023-03-04T00:51:06;25.58;;;5.68;;
23988;SDS011;12202;52.136;5.592;2023-03-04T00:53:32;30.10;;;5.47;;
23988;SDS011;12202;52.136;5.592;2023-03-04T00:55:58;31.60;;;4.53;;
23988;SDS011;12202;52.136;5.592;2023-03-04T00:58:24;24.92;;;5.55;;
23988;SDS011;12202;52.136;5.592;2023-03-04T01:00:50;19.55;;;3.67;;
23988;SDS011;12202;52.136;5.592;2023-03-04T01:03:16;28.80;;;4.72;;
23988;SDS011;12202;52.136;5.592;2023-03-04T01:05:42;33.40;;;5.80;;
23988;SDS011;12202;52.136;5.592;2023-03-04T01:08:08;21.30;;;4.53;;
23988;SDS011;12202;52.136;5.592;2023-03-04T01:10:34;18.00;;;3.45;;
23988;SDS011;12202;52.136;5.592;2023-03-04T01:13:00;20.50;;;3.55;;
23988;SDS011;12202;52.136;5.592;2023-03-04T01:15:26;27.23;;;3.92;;
23988;SDS011;12202;52.136;5.592;2023-03-04T01:17:52;29.92;;;6.35;;
23988;SDS011;12202;52.136;5.592;2023-03-04T01:20:18;32.63;;;3.58;;
23988;SDS011;12202;52.136;5.592;2023-03-04T01:22:44;23.48;;;3.38;;
23988;SDS011;12202;52.136;5.592;2023-03-04T01:25:10;24.95;;;4.68;;
23988;SDS011;12202;52.136;5.592;2023-03-04T01:27:55;30.65;;;5.65;;
23988;SDS011;12202;52.136;5.592;2023-03-04T01:30:25;17.98;;;3.00;;
23988;SDS011;12202;52.136;5.592;2023-03-04T01:32:55;22.80;;;3.47;;
23988;SDS011;12202;52.136;5.592;2023-03-04T01:35:34;16.25;;;4.03;;
23988;SDS011;12202;52.136;5.592;2023-03-04T01:38:13;14.68;;;3.28;;
23988;SDS011;12202;52.136;5.592;2023-03-04T01:40:56;17.25;;;3.42;;
23988;SDS011;12202;52.136;5.592;2023-03-04T01:43:29;25.33;;;3.75;;
23988;SDS011;12202;52.136;5.592;2023-03-04T01:45:55;20.92;;;4.78;;
23988;SDS011;12202;52.136;5.592;2023-03-04T01:48:26;23.80;;;3.70;;
23988;SDS011;12202;52.136;5.592;2023-03-04T01:50:53;28.88;;;4.00;;
23988;SDS011;12202;52.136;5.592;2023-03-04T01:53:21;18.00;;;3.00;;
23988;SDS011;12202;52.136;5.592;2023-03-04T01:55:47;18.38;;;2.95;;
23988;SDS011;12202;52.136;5.592;2023-03-04T01:58:14;15.02;;;3.53;;
23988;SDS011;12202;52.136;5.592;2023-03-04T02:00:40;19.42;;;3.00;;
23988;SDS011;12202;52.136;5.592;2023-03-04T02:03:08;26.85;;;4.05;;
23988;SDS011;12202;52.136;5.592;2023-03-04T02:05:36;17.33;;;3.80;;
23988;SDS011;12202;52.136;5.592;2023-03-04T02:08:02;19.77;;;4.30;;
23988;SDS011;12202;52.136;5.592;2023-03-04T02:10:29;33.22;;;5.28;;
23988;SDS011;12202;52.136;5.592;2023-03-04T02:12:55;20.58;;;4.45;;
23988;SDS011;12202;52.136;5.592;2023-03-04T02:15:21;22.92;;;3.63;;
23988;SDS011;12202;52.136;5.592;2023-03-04T02:17:48;31.63;;;3.85;;
23988;SDS011;12202;52.136;5.592;2023-03-04T02:20:37;22.10;;;4.40;;
23988;SDS011;12202;52.136;5.592;2023-03-04T02:25:41;29.13;;;4.47;;
23988;SDS011;12202;52.136;5.592;2023-03-04T02:28:09;22.83;;;3.15;;
23988;SDS011;12202;52.136;5.592;2023-03-04T02:30:35;33.70;;;4.20;;
23988;SDS011;12202;52.136;5.592;2023-03-04T02:33:01;16.80;;;3.58;;
23988;SDS011;12202;52.136;5.592;2023-03-04T02:35:27;18.38;;;2.85;;
23988;SDS011;12202;52.136;5.592;2023-03-04T02:37:53;22.63;;;3.65;;
23988;SDS011;12202;52.136;5.592;2023-03-04T02:40:23;34.83;;;3.55;;
23988;SDS011;12202;52.136;5.592;2023-03-04T02:42:51;20.90;;;2.92;;
23988;SDS011;12202;52.136;5.592;2023-03-04T02:45:29;14.90;;;3.42;;
23988;SDS011;12202;52.136;5.592;2023-03-04T02:47:55;20.33;;;3.60;;
23988;SDS011;12202;52.136;5.592;2023-03-04T02:50:21;22.95;;;3.38;;
23988;SDS011;12202;52.136;5.592;2023-03-04T02:52:47;17.95;;;4.43;;
23988;SDS011;12202;52.136;5.592;2023-03-04T02:55:13;17.38;;;3.60;;
23988;SDS011;12202;52.136;5.592;2023-03-04T02:57:39;25.17;;;2.60;;
23988;SDS011;12202;52.136;5.592;2023-03-04T03:00:05;20.08;;;2.88;;
23988;SDS011;12202;52.136;5.592;2023-03-04T03:02:32;25.50;;;3.05;;
23988;SDS011;12202;52.136;5.592;2023-03-04T03:04:58;22.75;;;3.90;;
23988;SDS011;12202;52.136;5.592;2023-03-04T03:07:24;29.25;;;4.32;;
23988;SDS011;12202;52.136;5.592;2023-03-04T03:09:50;24.15;;;3.40;;
23988;SDS011;12202;52.136;5.592;2023-03-04T03:12:16;22.63;;;3.03;;
23988;SDS011;12202;52.136;5.592;2023-03-04T03:14:42;20.05;;;3.58;;
23988;SDS011;12202;52.136;5.592;2023-03-04T03:17:08;26.73;;;3.10;;
23988;SDS011;12202;52.136;5.592;2023-03-04T03:19:34;20.92;;;3.88;;
23988;SDS011;12202;52.136;5.592;2023-03-04T03:22:00;22.25;;;3.03;;
23988;SDS011;12202;52.136;5.592;2023-03-04T03:24:26;16.67;;;2.13;;
23988;SDS011;12202;52.136;5.592;2023-03-04T03:26:52;18.63;;;3.65;;
23988;SDS011;12202;52.136;5.592;2023-03-04T03:29:18;28.83;;;3.05;;
23988;SDS011;12202;52.136;5.592;2023-03-04T03:31:44;20.38;;;2.35;;
23988;SDS011;12202;52.136;5.592;2023-03-04T03:34:10;20.73;;;3.08;;
23988;SDS011;12202;52.136;5.592;2023-03-04T03:36:37;22.13;;;3.28;;
23988;SDS011;12202;52.136;5.592;2023-03-04T03:39:03;20.10;;;2.83;;
23988;SDS011;12202;52.136;5.592;2023-03-04T03:41:29;19.42;;;2.42;;
23988;SDS011;12202;52.136;5.592;2023-03-04T03:43:55;21.52;;;2.58;;
23988;SDS011;12202;52.136;5.592;2023-03-04T03:46:21;21.77;;;4.25;;
23988;SDS011;12202;52.136;5.592;2023-03-04T03:48:47;14.68;;;2.50;;
23988;SDS011;12202;52.136;5.592;2023-03-04T03:51:13;18.75;;;2.30;;
23988;SDS011;12202;52.136;5.592;2023-03-04T03:53:39;27.40;;;3.53;;
23988;SDS011;12202;52.136;5.592;2023-03-04T03:56:05;22.70;;;3.13;;
23988;SDS011;12202;52.136;5.592;2023-03-04T03:58:31;25.23;;;3.55;;
23988;SDS011;12202;52.136;5.592;2023-03-04T04:00:57;17.15;;;4.00;;
23988;SDS011;12202;52.136;5.592;2023-03-04T04:03:23;23.35;;;2.80;;
23988;SDS011;12202;52.136;5.592;2023-03-04T04:05:49;23.08;;;3.45;;
23988;SDS011;12202;52.136;5.592;2023-03-04T04:08:16;19.15;;;2.80;;
23988;SDS011;12202;52.136;5.592;2023-03-04T04:10:42;20.02;;;2.63;;
23988;SDS011;12202;52.136;5.592;2023-03-04T04:13:08;21.45;;;3.05;;
23988;SDS011;12202;52.136;5.592;2023-03-04T04:15:35;28.42;;;3.40;;
23988;SDS011;12202;52.136;5.592;2023-03-04T04:18:02;15.05;;;2.53;;
23988;SDS011;12202;52.136;5.592;2023-03-04T04:20:28;17.20;;;2.67;;
23988;SDS011;12202;52.136;5.592;2023-03-04T04:22:54;15.60;;;2.60;;
23988;SDS011;12202;52.136;5.592;2023-03-04T04:25:20;12.32;;;2.20;;
23988;SDS011;12202;52.136;5.592;2023-03-04T04:27:46;13.77;;;1.95;;
23988;SDS011;12202;52.136;5.592;2023-03-04T04:30:12;14.70;;;1.75;;
23988;SDS011;12202;52.136;5.592;2023-03-04T04:32:38;16.77;;;2.53;;
23988;SDS011;12202;52.136;5.592;2023-03-04T04:35:05;17.67;;;2.53;;
23988;SDS011;12202;52.136;5.592;2023-03-04T04:37:31;16.90;;;2.88;;
23988;SDS011;12202;52.136;5.592;2023-03-04T04:39:57;16.27;;;2.08;;
23988;SDS011;12202;52.136;5.592;2023-03-04T04:42:23;13.05;;;2.55;;
23988;SDS011;12202;52.136;5.592;2023-03-04T04:44:49;25.17;;;2.72;;
23988;SDS011;12202;52.136;5.592;2023-03-04T04:47:15;12.07;;;2.08;;
23988;SDS011;12202;52.136;5.592;2023-03-04T04:49:41;22.45;;;2.78;;
23988;SDS011;12202;52.136;5.592;2023-03-04T04:52:07;16.48;;;2.60;;
23988;SDS011;12202;52.136;5.592;2023-03-04T04:54:33;20.48;;;2.60;;
23988;SDS011;12202;52.136;5.592;2023-03-04T04:56:59;15.93;;;2.25;;
23988;SDS011;12202;52.136;5.592;2023-03-04T04:59:25;19.77;;;3.13;;
23988;SDS011;12202;52.136;5.592;2023-03-04T05:01:51;20.45;;;2.47;;
23988;SDS011;12202;52.136;5.592;2023-03-04T05:04:17;29.70;;;3.10;;
23988;SDS011;12202;52.136;5.592;2023-03-04T05:06:43;14.98;;;2.40;;
23988;SDS011;12202;52.136;5.592;2023-03-04T05:09:09;18.98;;;3.47;;
23988;SDS011;12202;52.136;5.592;2023-03-04T05:11:35;16.05;;;1.95;;
23988;SDS011;12202;52.136;5.592;2023-03-04T05:14:01;14.10;;;2.47;;
23988;SDS011;12202;52.136;5.592;2023-03-04T05:16:27;14.77;;;2.45;;
23988;SDS011;12202;52.136;5.592;2023-03-04T05:18:53;18.00;;;2.42;;
23988;SDS011;12202;52.136;5.592;2023-03-04T05:21:19;13.90;;;3.05;;
23988;SDS011;12202;52.136;5.592;2023-03-04T05:23:45;16.83;;;3.50;;
23988;SDS011;12202;52.136;5.592;2023-03-04T05:26:14;14.93;;;2.70;;
23988;SDS011;12202;52.136;5.592;2023-03-04T05:28:41;12.00;;;3.60;;
23988;SDS011;12202;52.136;5.592;2023-03-04T05:31:07;17.02;;;3.78;;
23988;SDS011;12202;52.136;5.592;2023-03-04T05:33:33;19.40;;;3.78;;
23988;SDS011;12202;52.136;5.592;2023-03-04T05:36:00;20.08;;;2.95;;
23988;SDS011;12202;52.136;5.592;2023-03-04T05:38:26;18.65;;;2.60;;
23988;SDS011;12202;52.136;5.592;2023-03-04T05:40:56;15.32;;;2.80;;
23988;SDS011;12202;52.136;5.592;2023-03-04T05:43:22;16.85;;;2.63;;
23988;SDS011;12202;52.136;5.592;2023-03-04T05:45:48;19.83;;;3.88;;
23988;SDS011;12202;52.136;5.592;2023-03-04T05:48:14;20.95;;;2.47;;
23988;SDS011;12202;52.136;5.592;2023-03-04T05:50:40;16.25;;;2.90;;
23988;SDS011;12202;52.136;5.592;2023-03-04T05:53:06;12.27;;;2.15;;
23988;SDS011;12202;52.136;5.592;2023-03-04T05:55:32;15.65;;;3.28;;
23988;SDS011;12202;52.136;5.592;2023-03-04T05:57:58;9.73;;;2.33;;
23988;SDS011;12202;52.136;5.592;2023-03-04T06:00:24;11.95;;;2.80;;
23988;SDS011;12202;52.136;5.592;2023-03-04T06:02:50;18.08;;;2.78;;
23988;SDS011;12202;52.136;5.592;2023-03-04T06:05:16;14.32;;;2.88;;
23988;SDS011;12202;52.136;5.592;2023-03-04T06:07:43;23.10;;;3.40;;
23988;SDS011;12202;52.136;5.592;2023-03-04T06:10:10;20.92;;;3.35;;
23988;SDS011;12202;52.136;5.592;2023-03-04T06:12:36;18.05;;;3.60;;
23988;SDS011;12202;52.136;5.592;2023-03-04T06:15:02;17.38;;;4.07;;
23988;SDS011;12202;52.136;5.592;2023-03-04T06:17:29;18.67;;;4.75;;
23988;SDS011;12202;52.136;5.592;2023-03-04T06:19:55;12.43;;;3.28;;
23988;SDS011;12202;52.136;5.592;2023-03-04T06:22:22;10.10;;;2.72;;
23988;SDS011;12202;52.136;5.592;2023-03-04T06:24:48;16.40;;;3.40;;
23988;SDS011;12202;52.136;5.592;2023-03-04T06:27:14;18.60;;;3.65;;
23988;SDS011;12202;52.136;5.592;2023-03-04T06:29:40;14.77;;;3.88;;
23988;SDS011;12202;52.136;5.592;2023-03-04T06:32:06;11.88;;;2.90;;
23988;SDS011;12202;52.136;5.592;2023-03-04T06:34:33;13.52;;;3.47;;
23988;SDS011;12202;52.136;5.592;2023-03-04T06:36:59;17.30;;;4.15;;
23988;SDS011;12202;52.136;5.592;2023-03-04T06:39:25;21.58;;;3.78;;
23988;SDS011;12202;52.136;5.592;2023-03-04T06:41:51;18.77;;;3.15;;
23988;SDS011;12202;52.136;5.592;2023-03-04T06:44:17;18.85;;;3.15;;
23988;SDS011;12202;52.136;5.592;2023-03-04T06:46:43;13.93;;;3.45;;
23988;SDS011;12202;52.136;5.592;2023-03-04T06:49:09;10.80;;;2.90;;
23988;SDS011;12202;52.136;5.592;2023-03-04T06:51:35;21.13;;;2.78;;
23988;SDS011;12202;52.136;5.592;2023-03-04T06:54:01;29.10;;;4.18;;
23988;SDS011;12202;52.136;5.592;2023-03-04T06:56:27;15.50;;;3.25;;
23988;SDS011;12202;52.136;5.592;2023-03-04T06:58:53;17.23;;;2.97;;
23988;SDS011;12202;52.136;5.592;2023-03-04T07:01:21;22.95;;;2.80;;
23988;SDS011;12202;52.136;5.592;2023-03-04T07:03:48;19.58;;;2.85;;
23988;SDS011;12202;52.136;5.592;2023-03-04T07:06:15;22.45;;;3.08;;
23988;SDS011;12202;52.136;5.592;2023-03-04T07:08:42;24.00;;;3.60;;
23988;SDS011;12202;52.136;5.592;2023-03-04T07:11:08;21.90;;;3.95;;
23988;SDS011;12202;52.136;5.592;2023-03-04T07:13:34;26.60;;;4.30;;
23988;SDS011;12202;52.136;5.592;2023-03-04T07:16:02;12.52;;;3.95;;
23988;SDS011;12202;52.136;5.592;2023-03-04T07:18:28;23.77;;;4.25;;
23988;SDS011;12202;52.136;5.592;2023-03-04T07:20:54;19.17;;;3.85;;
23988;SDS011;12202;52.136;5.592;2023-03-04T07:23:20;16.13;;;5.13;;
23988;SDS011;12202;52.136;5.592;2023-03-04T07:25:47;15.70;;;4.05;;
23988;SDS011;12202;52.136;5.592;2023-03-04T07:28:13;26.08;;;4.70;;
23988;SDS011;12202;52.136;5.592;2023-03-04T07:30:39;15.18;;;3.58;;
23988;SDS011;12202;52.136;5.592;2023-03-04T07:33:05;20.55;;;4.47;;
23988;SDS011;12202;52.136;5.592;2023-03-04T07:35:31;10.98;;;3.75;;
23988;SDS011;12202;52.136;5.592;2023-03-04T07:38:10;15.60;;;4.65;;
23988;SDS011;12202;52.136;5.592;2023-03-04T07:40:37;21.30;;;5.25;;
23988;SDS011;12202;52.136;5.592;2023-03-04T07:43:14;17.63;;;3.88;;
23988;SDS011;12202;52.136;5.592;2023-03-04T07:45:40;21.65;;;4.10;;
23988;SDS011;12202;52.136;5.592;2023-03-04T07:48:06;23.52;;;3.60;;
23988;SDS011;12202;52.136;5.592;2023-03-04T07:50:31;16.70;;;3.83;;
23988;SDS011;12202;52.136;5.592;2023-03-04T07:52:57;18.67;;;3.83;;
23988;SDS011;12202;52.136;5.592;2023-03-04T07:55:23;17.80;;;3.58;;
23988;SDS011;12202;52.136;5.592;2023-03-04T07:57:49;19.50;;;3.50;;
23988;SDS011;12202;52.136;5.592;2023-03-04T08:00:16;12.68;;;3.28;;
23988;SDS011;12202;52.136;5.592;2023-03-04T08:02:42;22.33;;;3.78;;
23988;SDS011;12202;52.136;5.592;2023-03-04T08:05:08;12.38;;;3.42;;
23988;SDS011;12202;52.136;5.592;2023-03-04T08:07:34;12.15;;;3.45;;
23988;SDS011;12202;52.136;5.592;2023-03-04T08:10:00;15.73;;;2.90;;
23988;SDS011;12202;52.136;5.592;2023-03-04T08:12:26;11.43;;;3.28;;
23988;SDS011;12202;52.136;5.592;2023-03-04T08:14:53;11.93;;;3.45;;
23988;SDS011;12202;52.136;5.592;2023-03-04T08:17:19;11.35;;;2.45;;
23988;SDS011;12202;52.136;5.592;2023-03-04T08:19:45;8.52;;;2.67;;
23988;SDS011;12202;52.136;5.592;2023-03-04T08:22:12;7.43;;;2.22;;
23988;SDS011;12202;52.136;5.592;2023-03-04T08:24:38;9.27;;;3.10;;
23988;SDS011;12202;52.136;5.592;2023-03-04T08:27:04;8.23;;;2.40;;
23988;SDS011;12202;52.136;5.592;2023-03-04T08:29:31;15.10;;;2.55;;
23988;SDS011;12202;52.136;5.592;2023-03-04T08:31:57;14.02;;;2.63;;
23988;SDS011;12202;52.136;5.592;2023-03-04T08:34:24;13.18;;;2.45;;
23988;SDS011;12202;52.136;5.592;2023-03-04T08:36:50;12.18;;;2.40;;
23988;SDS011;12202;52.136;5.592;2023-03-04T08:39:16;9.73;;;2.72;;
23988;SDS011;12202;52.136;5.592;2023-03-04T08:41:42;10.27;;;2.75;;
23988;SDS011;12202;52.136;5.592;2023-03-04T08:44:09;12.60;;;3.20;;
23988;SDS011;12202;52.136;5.592;2023-03-04T08:46:38;15.48;;;2.60;;
23988;SDS011;12202;52.136;5.592;2023-03-04T08:49:05;6.10;;;2.45;;
23988;SDS011;12202;52.136;5.592;2023-03-04T08:51:31;17.38;;;3.22;;
23988;SDS011;12202;52.136;5.592;2023-03-04T08:53:59;20.02;;;3.72;;
23988;SDS011;12202;52.136;5.592;2023-03-04T08:56:25;7.10;;;2.58;;
23988;SDS011;12202;52.136;5.592;2023-03-04T08:58:51;10.77;;;2.85;;
23988;SDS011;12202;52.136;5.592;2023-03-04T09:01:18;10.02;;;2.88;;
23988;SDS011;12202;52.136;5.592;2023-03-04T09:03:44;12.52;;;5.55;;
23988;SDS011;12202;52.136;5.592;2023-03-04T09:06:11;16.95;;;8.00;;
23988;SDS011;12202;52.136;5.592;2023-03-04T09:08:38;23.98;;;9.40;;
23988;SDS011;12202;52.136;5.592;2023-03-04T09:11:04;28.08;;;14.35;;
23988;SDS011;12202;52.136;5.592;2023-03-04T09:13:30;18.38;;;9.25;;
23988;SDS011;12202;52.136;5.592;2023-03-04T09:15:57;15.15;;;8.20;;
23988;SDS011;12202;52.136;5.592;2023-03-04T09:18:23;10.15;;;3.67;;
23988;SDS011;12202;52.136;5.592;2023-03-04T09:20:50;8.88;;;4.55;;
23988;SDS011;12202;52.136;5.592;2023-03-04T09:23:16;9.80;;;4.47;;
23988;SDS011;12202;52.136;5.592;2023-03-04T09:25:43;7.32;;;4.15;;
23988;SDS011;12202;52.136;5.592;2023-03-04T09:28:10;15.88;;;3.72;;
23988;SDS011;12202;52.136;5.592;2023-03-04T09:30:36;10.10;;;3.20;;
23988;SDS011;12202;52.136;5.592;2023-03-04T09:33:02;8.02;;;4.20;;
23988;SDS011;12202;52.136;5.592;2023-03-04T09:35:28;9.98;;;3.85;;
23988;SDS011;12202;52.136;5.592;2023-03-04T09:37:55;9.82;;;4.07;;
23988;SDS011;12202;52.136;5.592;2023-03-04T09:40:22;10.80;;;3.22;;
23988;SDS011;12202;52.136;5.592;2023-03-04T09:42:50;7.90;;;3.47;;
23988;SDS011;12202;52.136;5.592;2023-03-04T09:45:19;6.70;;;3.03;;
23988;SDS011;12202;52.136;5.592;2023-03-04T09:47:47;7.15;;;2.70;;
23988;SDS011;12202;52.136;5.592;2023-03-04T09:50:13;6.47;;;2.75;;
23988;SDS011;12202;52.136;5.592;2023-03-04T09:52:45;22.38;;;2.90;;
23988;SDS011;12202;52.136;5.592;2023-03-04T10:00:38;5.43;;;3.10;;
23988;SDS011;12202;52.136;5.592;2023-03-04T10:03:10;11.48;;;3.25;;
23988;SDS011;12202;52.136;5.592;2023-03-04T10:05:41;12.43;;;3.30;;
23988;SDS011;12202;52.136;5.592;2023-03-04T10:08:17;8.85;;;3.13;;
23988;SDS011;12202;52.136;5.592;2023-03-04T10:10:46;13.88;;;2.67;;
23988;SDS011;12202;52.136;5.592;2023-03-04T10:13:15;18.92;;;5.63;;
23988;SDS011;12202;52.136;5.592;2023-03-04T10:15:44;10.52;;;5.75;;
23988;SDS011;12202;52.136;5.592;2023-03-04T10:18:21;7.32;;;5.03;;
23988;SDS011;12202;52.136;5.592;2023-03-04T10:20:51;5.50;;;3.10;;
23988;SDS011;12202;52.136;5.592;2023-03-04T10:23:19;9.98;;;4.07;;
23988;SDS011;12202;52.136;5.592;2023-03-04T10:25:46;9.18;;;4.20;;
23988;SDS011;12202;52.136;5.592;2023-03-04T10:28:18;12.02;;;3.88;;
23988;SDS011;12202;52.136;5.592;2023-03-04T10:31:00;9.55;;;5.00;;
23988;SDS011;12202;52.136;5.592;2023-03-04T10:33:28;13.75;;;3.50;;
23988;SDS011;12202;52.136;5.592;2023-03-04T10:36:04;9.63;;;4.13;;
23988;SDS011;12202;52.136;5.592;2023-03-04T10:38:33;9.70;;;3.85;;
23988;SDS011;12202;52.136;5.592;2023-03-04T10:41:13;9.10;;;4.55;;
23988;SDS011;12202;52.136;5.592;2023-03-04T10:43:39;11.40;;;4.22;;
23988;SDS011;12202;52.136;5.592;2023-03-04T10:46:09;8.07;;;4.28;;
23988;SDS011;12202;52.136;5.592;2023-03-04T10:48:36;11.85;;;6.15;;
23988;SDS011;12202;52.136;5.592;2023-03-04T10:51:15;14.32;;;6.40;;
23988;SDS011;12202;52.136;5.592;2023-03-04T10:53:43;7.40;;;4.80;;
23988;SDS011;12202;52.136;5.592;2023-03-04T10:56:29;7.60;;;4.70;;
23988;SDS011;12202;52.136;5.592;2023-03-04T10:59:04;13.57;;;2.70;;
23988;SDS011;12202;52.136;5.592;2023-03-04T11:01:41;7.25;;;2.20;;
23988;SDS011;12202;52.136;5.592;2023-03-04T11:04:16;13.77;;;3.25;;
23988;SDS011;12202;52.136;5.592;2023-03-04T11:06:42;7.57;;;3.63;;
23988;SDS011;12202;52.136;5.592;2023-03-04T11:09:21;5.85;;;2.95;;
23988;SDS011;12202;52.136;5.592;2023-03-04T11:11:49;4.38;;;2.15;;
23988;SDS011;12202;52.136;5.592;2023-03-04T11:16:44;5.15;;;1.60;;
23988;SDS011;12202;52.136;5.592;2023-03-04T11:19:16;4.50;;;1.85;;
23988;SDS011;12202;52.136;5.592;2023-03-04T11:21:43;8.05;;;1.95;;
23988;SDS011;12202;52.136;5.592;2023-03-04T11:24:17;3.80;;;2.08;;
23988;SDS011;12202;52.136;5.592;2023-03-04T11:26:46;7.90;;;2.22;;
23988;SDS011;12202;52.136;5.592;2023-03-04T11:29:15;7.22;;;2.30;;
23988;SDS011;12202;52.136;5.592;2023-03-04T11:31:47;8.38;;;2.83;;
23988;SDS011;12202;52.136;5.592;2023-03-04T11:34:32;10.85;;;3.17;;
23988;SDS011;12202;52.136;5.592;2023-03-04T11:44:56;9.80;;;1.90;;
23988;SDS011;12202;52.136;5.592;2023-03-04T11:47:27;17.92;;;2.80;;
23988;SDS011;12202;52.136;5.592;2023-03-04T11:52:40;10.00;;;3.42;;
23988;SDS011;12202;52.136;5.592;2023-03-04T11:57:39;15.50;;;6.13;;
23988;SDS011;12202;52.136;5.592;2023-03-04T12:00:18;11.05;;;6.57;;
23988;SDS011;12202;52.136;5.592;2023-03-04T12:08:21;13.90;;;3.15;;
23988;SDS011;12202;52.136;5.592;2023-03-04T12:11:10;12.65;;;3.08;;
23988;SDS011;12202;52.136;5.592;2023-03-04T12:16:20;10.80;;;1.90;;
23988;SDS011;12202;52.136;5.592;2023-03-04T12:18:56;10.48;;;1.88;;
23988;SDS011;12202;52.136;5.592;2023-03-04T12:24:31;19.33;;;3.22;;
23988;SDS011;12202;52.136;5.592;2023-03-04T12:27:12;10.40;;;2.30;;
23988;SDS011;12202;52.136;5.592;2023-03-04T12:48:05;12.00;;;1.98;;
23988;SDS011;12202;52.136;5.592;2023-03-04T12:50:40;22.27;;;3.33;;
23988;SDS011;12202;52.136;5.592;2023-03-04T12:53:19;15.05;;;2.92;;
23988;SDS011;12202;52.136;5.592;2023-03-04T12:55:49;19.85;;;3.78;;
23988;SDS011;12202;52.136;5.592;2023-03-04T12:58:17;19.92;;;2.95;;
23988;SDS011;12202;52.136;5.592;2023-03-04T13:10:59;13.77;;;2.85;;
23988;SDS011;12202;52.136;5.592;2023-03-04T13:16:02;15.88;;;2.63;;
23988;SDS011;12202;52.136;5.592;2023-03-04T13:18:30;17.08;;;2.15;;
23988;SDS011;12202;52.136;5.592;2023-03-04T13:23:33;21.75;;;3.42;;
23988;SDS011;12202;52.136;5.592;2023-03-04T13:40:52;28.73;;;5.93;;
23988;SDS011;12202;52.136;5.592;2023-03-04T13:43:39;25.30;;;4.40;;
23988;SDS011;12202;52.136;5.592;2023-03-04T13:51:22;14.10;;;3.80;;
23988;SDS011;12202;52.136;5.592;2023-03-04T13:53:52;9.95;;;3.45;;
23988;SDS011;12202;52.136;5.592;2023-03-04T13:56:20;17.33;;;3.53;;
23988;SDS011;12202;52.136;5.592;2023-03-04T13:58:47;16.17;;;3.10;;
23988;SDS011;12202;52.136;5.592;2023-03-04T14:01:28;22.05;;;3.97;;
23988;SDS011;12202;52.136;5.592;2023-03-04T14:03:55;10.10;;;2.15;;
23988;SDS011;12202;52.136;5.592;2023-03-04T14:06:28;17.13;;;2.78;;
23988;SDS011;12202;52.136;5.592;2023-03-04T14:08:55;9.70;;;2.17;;
23988;SDS011;12202;52.136;5.592;2023-03-04T14:11:34;6.88;;;1.85;;
23988;SDS011;12202;52.136;5.592;2023-03-04T14:14:04;9.50;;;1.55;;
23988;SDS011;12202;52.136;5.592;2023-03-04T14:16:31;5.35;;;2.40;;
23988;SDS011;12202;52.136;5.592;2023-03-04T14:18:59;10.95;;;1.60;;
23988;SDS011;12202;52.136;5.592;2023-03-04T14:21:26;6.85;;;2.40;;
23988;SDS011;12202;52.136;5.592;2023-03-04T14:24:02;4.80;;;2.00;;
23988;SDS011;12202;52.136;5.592;2023-03-04T14:26:29;9.40;;;2.55;;
23988;SDS011;12202;52.136;5.592;2023-03-04T14:28:56;9.25;;;1.67;;
23988;SDS011;12202;52.136;5.592;2023-03-04T14:31:24;6.72;;;1.52;;
23988;SDS011;12202;52.136;5.592;2023-03-04T14:33:52;4.85;;;1.20;;
23988;SDS011;12202;52.136;5.592;2023-03-04T14:36:23;6.03;;;1.55;;
23988;SDS011;12202;52.136;5.592;2023-03-04T14:38:53;7.82;;;2.08;;
23988;SDS011;12202;52.136;5.592;2023-03-04T14:41:24;6.65;;;1.65;;
23988;SDS011;12202;52.136;5.592;2023-03-04T14:46:16;5.82;;;1.80;;
23988;SDS011;12202;52.136;5.592;2023-03-04T14:48:44;6.78;;;1.92;;
23988;SDS011;12202;52.136;5.592;2023-03-04T14:53:56;10.48;;;2.08;;
23988;SDS011;12202;52.136;5.592;2023-03-04T14:56:26;6.60;;;1.10;;
23988;SDS011;12202;52.136;5.592;2023-03-04T14:58:54;7.22;;;1.92;;
23988;SDS011;12202;52.136;5.592;2023-03-04T15:01:22;10.57;;;3.15;;
23988;SDS011;12202;52.136;5.592;2023-03-04T15:04:00;11.27;;;2.33;;
23988;SDS011;12202;52.136;5.592;2023-03-04T15:06:28;12.20;;;2.17;;
23988;SDS011;12202;52.136;5.592;2023-03-04T15:11:25;14.50;;;2.75;;
23988;SDS011;12202;52.136;5.592;2023-03-04T15:13:52;10.13;;;2.40;;
23988;SDS011;12202;52.136;5.592;2023-03-04T15:16:26;18.50;;;2.63;;
23988;SDS011;12202;52.136;5.592;2023-03-04T15:18:53;13.60;;;2.20;;
23988;SDS011;12202;52.136;5.592;2023-03-04T15:23:45;15.25;;;2.28;;
23988;SDS011;12202;52.136;5.592;2023-03-04T15:26:11;11.98;;;2.13;;
23988;SDS011;12202;52.136;5.592;2023-03-04T15:28:37;14.85;;;2.38;;
23988;SDS011;12202;52.136;5.592;2023-03-04T15:31:04;13.98;;;2.65;;
23988;SDS011;12202;52.136;5.592;2023-03-04T15:33:31;12.48;;;2.30;;
23988;SDS011;12202;52.136;5.592;2023-03-04T15:35:58;13.40;;;2.75;;
23988;SDS011;12202;52.136;5.592;2023-03-04T15:38:25;23.15;;;3.30;;
23988;SDS011;12202;52.136;5.592;2023-03-04T15:40:52;11.98;;;2.75;;
23988;SDS011;12202;52.136;5.592;2023-03-04T15:43:19;15.55;;;2.47;;
23988;SDS011;12202;52.136;5.592;2023-03-04T15:45:47;8.75;;;2.47;;
23988;SDS011;12202;52.136;5.592;2023-03-04T15:48:14;9.90;;;2.10;;
23988;SDS011;12202;52.136;5.592;2023-03-04T15:50:41;7.53;;;2.10;;
23988;SDS011;12202;52.136;5.592;2023-03-04T15:53:20;5.78;;;1.73;;
23988;SDS011;12202;52.136;5.592;2023-03-04T15:55:47;6.07;;;2.10;;
23988;SDS011;12202;52.136;5.592;2023-03-04T15:58:13;10.30;;;2.40;;
23988;SDS011;12202;52.136;5.592;2023-03-04T16:00:40;10.95;;;1.60;;
23988;SDS011;12202;52.136;5.592;2023-03-04T16:03:08;13.38;;;3.28;;
23988;SDS011;12202;52.136;5.592;2023-03-04T16:05:35;14.25;;;3.38;;
23988;SDS011;12202;52.136;5.592;2023-03-04T16:08:02;11.43;;;3.05;;
23988;SDS011;12202;52.136;5.592;2023-03-04T16:10:28;18.00;;;2.97;;
23988;SDS011;12202;52.136;5.592;2023-03-04T16:12:55;8.23;;;2.55;;
23988;SDS011;12202;52.136;5.592;2023-03-04T16:15:22;15.75;;;2.60;;
23988;SDS011;12202;52.136;5.592;2023-03-04T16:17:48;13.57;;;2.58;;
23988;SDS011;12202;52.136;5.592;2023-03-04T16:20:16;15.90;;;4.40;;